sensor_id;sensor_type;location;lat;lon;timestamp;P1;durP1;ratioP1;P2;durP2;ratioP2
52360;SDS011;38294;42.966;1.608;2023-02-01T04:02:59;13.35;;;5.47;;
52360;SDS011;38294;42.966;1.608;2023-02-01T04:05:25;9.75;;;5.40;;
52360;SDS011;38294;42.966;1.608;2023-02-01T04:07:50;10.48;;;5.35;;
52360;SDS011;38294;42.966;1.608;2023-02-01T04:10:16;7.22;;;4.57;;
52360;SDS011;38294;42.966;1.608;2023-02-01T04:12:41;7.35;;;4.47;;
52360;SDS011;38294;42.966;1.608;2023-02-01T04:15:07;6.07;;;3.83;;
52360;SDS011;38294;42.966;1.608;2023-02-01T04:17:33;7.03;;;4.30;;
52360;SDS011;38294;42.966;1.608;2023-02-01T04:19:59;6.35;;;3.72;;
52360;SDS011;38294;42.966;1.608;2023-02-01T04:22:24;7.30;;;4.65;;
52360;SDS011;38294;42.966;1.608;2023-02-01T04:24:50;7.18;;;4.00;;
52360;SDS011;38294;42.966;1.608;2023-02-01T04:27:15;10.45;;;4.43;;
52360;SDS011;38294;42.966;1.608;2023-02-01T04:29:41;9.00;;;4.68;;
52360;SDS011;38294;42.966;1.608;2023-02-01T04:32:07;8.05;;;4.97;;
52360;SDS011;38294;42.966;1.608;2023-02-01T04:34:32;8.68;;;4.80;;
52360;SDS011;38294;42.966;1.608;2023-02-01T04:36:58;6.50;;;3.50;;
52360;SDS011;38294;42.966;1.608;2023-02-01T04:39:24;6.30;;;3.17;;
52360;SDS011;38294;42.966;1.608;2023-02-01T04:41:49;4.22;;;2.90;;
52360;SDS011;38294;42.966;1.608;2023-02-01T04:44:16;4.97;;;3.17;;
52360;SDS011;38294;42.966;1.608;2023-02-01T04:46:42;4.85;;;3.60;;
52360;SDS011;38294;42.966;1.608;2023-02-01T04:49:09;6.47;;;3.83;;
52360;SDS011;38294;42.966;1.608;2023-02-01T04:51:35;4.93;;;3.70;;
52360;SDS011;38294;42.966;1.608;2023-02-01T04:54:01;5.65;;;3.20;;
52360;SDS011;38294;42.966;1.608;2023-02-01T04:56:27;7.72;;;4.60;;
52360;SDS011;38294;42.966;1.608;2023-02-01T04:58:52;8.27;;;5.00;;
52360;SDS011;38294;42.966;1.608;2023-02-01T05:01:18;9.45;;;5.30;;
52360;SDS011;38294;42.966;1.608;2023-02-01T05:03:43;9.40;;;4.95;;
52360;SDS011;38294;42.966;1.608;2023-02-01T05:06:09;10.13;;;5.05;;
52360;SDS011;38294;42.966;1.608;2023-02-01T05:08:35;8.38;;;4.38;;
52360;SDS011;38294;42.966;1.608;2023-02-01T05:11:00;8.60;;;5.32;;
52360;SDS011;38294;42.966;1.608;2023-02-01T05:13:29;11.23;;;6.00;;
52360;SDS011;38294;42.966;1.608;2023-02-01T05:16:14;15.85;;;6.13;;
52360;SDS011;38294;42.966;1.608;2023-02-01T05:18:40;9.55;;;5.35;;
52360;SDS011;38294;42.966;1.608;2023-02-01T05:21:06;8.48;;;4.80;;
52360;SDS011;38294;42.966;1.608;2023-02-01T05:23:31;9.70;;;5.00;;
52360;SDS011;38294;42.966;1.608;2023-02-01T05:26:00;9.27;;;5.32;;
52360;SDS011;38294;42.966;1.608;2023-02-01T05:28:26;9.20;;;5.90;;
52360;SDS011;38294;42.966;1.608;2023-02-01T05:30:53;9.98;;;5.05;;
52360;SDS011;38294;42.966;1.608;2023-02-01T05:33:19;9.00;;;5.78;;
52360;SDS011;38294;42.966;1.608;2023-02-01T05:35:45;11.50;;;5.95;;
52360;SDS011;38294;42.966;1.608;2023-02-01T05:38:11;10.57;;;5.88;;
52360;SDS011;38294;42.966;1.608;2023-02-01T05:40:36;10.02;;;5.20;;
52360;SDS011;38294;42.966;1.608;2023-02-01T05:43:02;7.72;;;5.18;;
52360;SDS011;38294;42.966;1.608;2023-02-01T05:45:27;10.95;;;5.03;;
52360;SDS011;38294;42.966;1.608;2023-02-01T05:47:53;10.40;;;5.90;;
52360;SDS011;38294;42.966;1.608;2023-02-01T05:50:18;9.35;;;5.72;;
52360;SDS011;38294;42.966;1.608;2023-02-01T05:52:44;11.10;;;5.95;;
52360;SDS011;38294;42.966;1.608;2023-02-01T05:55:09;12.80;;;6.55;;
52360;SDS011;38294;42.966;1.608;2023-02-01T05:57:35;12.60;;;6.10;;
52360;SDS011;38294;42.966;1.608;2023-02-01T06:00:01;10.55;;;5.93;;
52360;SDS011;38294;42.966;1.608;2023-02-01T06:02:27;10.27;;;5.97;;
52360;SDS011;38294;42.966;1.608;2023-02-01T06:04:52;14.18;;;6.38;;
52360;SDS011;38294;42.966;1.608;2023-02-01T06:07:18;10.25;;;5.53;;
52360;SDS011;38294;42.966;1.608;2023-02-01T06:09:45;8.60;;;5.43;;
52360;SDS011;38294;42.966;1.608;2023-02-01T06:12:10;8.20;;;5.07;;
52360;SDS011;38294;42.966;1.608;2023-02-01T06:14:36;6.72;;;3.95;;
52360;SDS011;38294;42.966;1.608;2023-02-01T06:17:02;8.15;;;4.55;;
52360;SDS011;38294;42.966;1.608;2023-02-01T06:19:27;6.03;;;4.03;;
52360;SDS011;38294;42.966;1.608;2023-02-01T06:21:53;10.23;;;3.10;;
52360;SDS011;38294;42.966;1.608;2023-02-01T06:24:19;11.95;;;3.40;;
52360;SDS011;38294;42.966;1.608;2023-02-01T06:26:44;7.22;;;4.78;;
52360;SDS011;38294;42.966;1.608;2023-02-01T06:29:10;9.13;;;5.28;;
52360;SDS011;38294;42.966;1.608;2023-02-01T06:31:36;10.13;;;6.00;;
52360;SDS011;38294;42.966;1.608;2023-02-01T06:34:01;11.27;;;5.43;;
52360;SDS011;38294;42.966;1.608;2023-02-01T06:36:28;8.30;;;4.40;;
52360;SDS011;38294;42.966;1.608;2023-02-01T06:38:54;8.23;;;3.83;;
52360;SDS011;38294;42.966;1.608;2023-02-01T06:41:21;7.20;;;3.25;;
52360;SDS011;38294;42.966;1.608;2023-02-01T06:43:47;5.05;;;2.90;;
52360;SDS011;38294;42.966;1.608;2023-02-01T06:46:13;6.30;;;3.05;;
52360;SDS011;38294;42.966;1.608;2023-02-01T06:48:39;6.28;;;4.15;;
52360;SDS011;38294;42.966;1.608;2023-02-01T06:51:05;8.57;;;4.88;;
52360;SDS011;38294;42.966;1.608;2023-02-01T06:53:31;10.73;;;4.57;;
52360;SDS011;38294;42.966;1.608;2023-02-01T06:55:57;7.15;;;4.35;;
52360;SDS011;38294;42.966;1.608;2023-02-01T06:58:27;6.30;;;3.92;;
52360;SDS011;38294;42.966;1.608;2023-02-01T07:00:54;7.85;;;5.30;;
52360;SDS011;38294;42.966;1.608;2023-02-01T07:03:20;10.80;;;5.63;;
52360;SDS011;38294;42.966;1.608;2023-02-01T07:05:46;10.20;;;6.32;;
52360;SDS011;38294;42.966;1.608;2023-02-01T07:08:11;12.52;;;5.95;;
52360;SDS011;38294;42.966;1.608;2023-02-01T07:10:37;8.93;;;5.95;;
52360;SDS011;38294;42.966;1.608;2023-02-01T07:13:03;14.60;;;6.50;;
52360;SDS011;38294;42.966;1.608;2023-02-01T07:15:29;11.52;;;5.80;;
52360;SDS011;38294;42.966;1.608;2023-02-01T07:17:54;9.68;;;6.07;;
52360;SDS011;38294;42.966;1.608;2023-02-01T07:20:20;13.23;;;5.97;;
52360;SDS011;38294;42.966;1.608;2023-02-01T07:22:46;9.57;;;6.10;;
52360;SDS011;38294;42.966;1.608;2023-02-01T07:25:11;11.90;;;5.90;;
52360;SDS011;38294;42.966;1.608;2023-02-01T07:27:37;10.18;;;5.20;;
52360;SDS011;38294;42.966;1.608;2023-02-01T07:30:03;10.98;;;5.43;;
52360;SDS011;38294;42.966;1.608;2023-02-01T07:32:30;10.25;;;4.85;;
52360;SDS011;38294;42.966;1.608;2023-02-01T07:34:56;7.88;;;4.78;;
52360;SDS011;38294;42.966;1.608;2023-02-01T07:37:22;8.45;;;4.63;;
52360;SDS011;38294;42.966;1.608;2023-02-01T07:39:51;9.88;;;5.15;;
52360;SDS011;38294;42.966;1.608;2023-02-01T07:42:17;8.65;;;5.25;;
52360;SDS011;38294;42.966;1.608;2023-02-01T07:44:43;14.07;;;5.88;;
52360;SDS011;38294;42.966;1.608;2023-02-01T07:47:08;28.27;;;6.93;;
52360;SDS011;38294;42.966;1.608;2023-02-01T07:49:34;39.60;;;8.10;;
52360;SDS011;38294;42.966;1.608;2023-02-01T07:51:59;15.88;;;5.97;;
52360;SDS011;38294;42.966;1.608;2023-02-01T07:54:25;12.35;;;5.18;;
52360;SDS011;38294;42.966;1.608;2023-02-01T07:56:51;12.25;;;5.25;;
52360;SDS011;38294;42.966;1.608;2023-02-01T07:59:17;9.32;;;5.10;;
52360;SDS011;38294;42.966;1.608;2023-02-01T08:01:43;5.90;;;3.63;;
52360;SDS011;38294;42.966;1.608;2023-02-01T08:04:12;6.50;;;3.90;;
52360;SDS011;38294;42.966;1.608;2023-02-01T08:06:38;7.45;;;2.65;;
52360;SDS011;38294;42.966;1.608;2023-02-01T08:09:05;3.33;;;2.30;;
52360;SDS011;38294;42.966;1.608;2023-02-01T08:11:33;2.05;;;1.70;;
52360;SDS011;38294;42.966;1.608;2023-02-01T08:13:59;2.60;;;2.05;;
52360;SDS011;38294;42.966;1.608;2023-02-01T08:16:25;1.77;;;1.67;;
52360;SDS011;38294;42.966;1.608;2023-02-01T08:18:51;2.03;;;1.60;;
52360;SDS011;38294;42.966;1.608;2023-02-01T08:21:20;2.10;;;1.80;;
52360;SDS011;38294;42.966;1.608;2023-02-01T08:23:49;2.15;;;1.67;;
52360;SDS011;38294;42.966;1.608;2023-02-01T08:26:16;1.75;;;1.65;;
52360;SDS011;38294;42.966;1.608;2023-02-01T08:28:45;2.17;;;1.90;;
52360;SDS011;38294;42.966;1.608;2023-02-01T08:31:17;2.25;;;1.55;;
52360;SDS011;38294;42.966;1.608;2023-02-01T08:33:47;1.95;;;1.67;;
52360;SDS011;38294;42.966;1.608;2023-02-01T08:36:15;2.35;;;1.70;;
52360;SDS011;38294;42.966;1.608;2023-02-01T08:38:41;4.82;;;1.92;;
52360;SDS011;38294;42.966;1.608;2023-02-01T08:41:11;2.00;;;1.70;;
52360;SDS011;38294;42.966;1.608;2023-02-01T08:43:41;2.10;;;1.88;;
52360;SDS011;38294;42.966;1.608;2023-02-01T08:46:08;2.05;;;1.75;;
52360;SDS011;38294;42.966;1.608;2023-02-01T08:48:35;2.00;;;1.85;;
52360;SDS011;38294;42.966;1.608;2023-02-01T08:51:02;2.17;;;1.95;;
52360;SDS011;38294;42.966;1.608;2023-02-01T08:53:29;2.97;;;1.90;;
52360;SDS011;38294;42.966;1.608;2023-02-01T08:55:55;4.03;;;2.22;;
52360;SDS011;38294;42.966;1.608;2023-02-01T08:58:21;4.72;;;2.90;;
52360;SDS011;38294;42.966;1.608;2023-02-01T09:00:47;7.22;;;2.80;;
52360;SDS011;38294;42.966;1.608;2023-02-01T09:03:14;4.60;;;2.55;;
52360;SDS011;38294;42.966;1.608;2023-02-01T09:05:39;5.25;;;3.00;;
52360;SDS011;38294;42.966;1.608;2023-02-01T09:08:05;5.60;;;2.90;;
52360;SDS011;38294;42.966;1.608;2023-02-01T09:10:31;7.47;;;3.60;;
52360;SDS011;38294;42.966;1.608;2023-02-01T09:12:58;5.93;;;3.95;;
52360;SDS011;38294;42.966;1.608;2023-02-01T09:15:24;4.53;;;3.15;;
52360;SDS011;38294;42.966;1.608;2023-02-01T09:17:49;3.05;;;2.35;;
52360;SDS011;38294;42.966;1.608;2023-02-01T09:20:15;4.35;;;2.15;;
52360;SDS011;38294;42.966;1.608;2023-02-01T09:22:41;10.45;;;2.20;;
52360;SDS011;38294;42.966;1.608;2023-02-01T09:25:07;2.20;;;1.77;;
52360;SDS011;38294;42.966;1.608;2023-02-01T09:27:33;3.30;;;1.60;;
52360;SDS011;38294;42.966;1.608;2023-02-01T09:29:59;2.63;;;1.30;;
52360;SDS011;38294;42.966;1.608;2023-02-01T09:32:24;3.40;;;1.40;;
52360;SDS011;38294;42.966;1.608;2023-02-01T09:34:50;2.38;;;1.20;;
52360;SDS011;38294;42.966;1.608;2023-02-01T09:37:17;1.40;;;1.10;;
52360;SDS011;38294;42.966;1.608;2023-02-01T09:39:43;2.85;;;1.17;;
52360;SDS011;38294;42.966;1.608;2023-02-01T09:50:02;1.10;;;1.00;;
52360;SDS011;38294;42.966;1.608;2023-02-01T09:52:35;0.90;;;0.90;;
52360;SDS011;38294;42.966;1.608;2023-02-01T09:55:03;1.17;;;1.08;;
52360;SDS011;38294;42.966;1.608;2023-02-01T10:00:17;1.30;;;1.20;;
52360;SDS011;38294;42.966;1.608;2023-02-01T10:02:48;2.85;;;1.77;;
52360;SDS011;38294;42.966;1.608;2023-02-01T10:05:16;5.95;;;1.45;;
52360;SDS011;38294;42.966;1.608;2023-02-01T10:07:56;2.80;;;1.80;;
52360;SDS011;38294;42.966;1.608;2023-02-01T10:10:28;2.05;;;1.70;;
52360;SDS011;38294;42.966;1.608;2023-02-01T10:22:08;2.22;;;1.00;;
52360;SDS011;38294;42.966;1.608;2023-02-01T10:24:58;2.60;;;1.30;;
52360;SDS011;38294;42.966;1.608;2023-02-01T10:30:18;1.38;;;1.20;;
52360;SDS011;38294;42.966;1.608;2023-02-01T10:35:38;1.48;;;1.10;;
52360;SDS011;38294;42.966;1.608;2023-02-01T10:38:08;0.80;;;0.80;;
52360;SDS011;38294;42.966;1.608;2023-02-01T10:40:46;0.90;;;0.90;;
52360;SDS011;38294;42.966;1.608;2023-02-01T10:43:12;1.85;;;1.20;;
52360;SDS011;38294;42.966;1.608;2023-02-01T10:45:38;1.00;;;0.90;;
52360;SDS011;38294;42.966;1.608;2023-02-01T10:48:04;0.90;;;0.90;;
52360;SDS011;38294;42.966;1.608;2023-02-01T10:50:47;1.08;;;1.00;;
52360;SDS011;38294;42.966;1.608;2023-02-01T10:56:08;1.55;;;1.00;;
52360;SDS011;38294;42.966;1.608;2023-02-01T10:58:35;1.40;;;0.98;;
52360;SDS011;38294;42.966;1.608;2023-02-01T11:01:07;1.00;;;0.90;;
52360;SDS011;38294;42.966;1.608;2023-02-01T11:06:36;0.93;;;0.90;;
52360;SDS011;38294;42.966;1.608;2023-02-01T11:11:32;2.78;;;1.67;;
52360;SDS011;38294;42.966;1.608;2023-02-01T11:14:19;1.63;;;1.35;;
52360;SDS011;38294;42.966;1.608;2023-02-01T11:16:56;2.70;;;1.33;;
52360;SDS011;38294;42.966;1.608;2023-02-01T11:19:25;1.10;;;1.00;;
52360;SDS011;38294;42.966;1.608;2023-02-01T11:21:51;0.98;;;0.90;;
52360;SDS011;38294;42.966;1.608;2023-02-01T11:24:22;1.15;;;1.00;;
52360;SDS011;38294;42.966;1.608;2023-02-01T11:26:50;1.67;;;1.52;;
52360;SDS011;38294;42.966;1.608;2023-02-01T11:29:18;2.75;;;1.67;;
52360;SDS011;38294;42.966;1.608;2023-02-01T11:31:49;2.38;;;1.40;;
52360;SDS011;38294;42.966;1.608;2023-02-01T11:34:16;2.38;;;1.73;;
52360;SDS011;38294;42.966;1.608;2023-02-01T11:36:45;2.50;;;1.80;;
52360;SDS011;38294;42.966;1.608;2023-02-01T11:41:42;1.40;;;1.30;;
52360;SDS011;38294;42.966;1.608;2023-02-01T11:44:21;2.15;;;1.95;;
52360;SDS011;38294;42.966;1.608;2023-02-01T11:46:51;2.33;;;1.55;;
52360;SDS011;38294;42.966;1.608;2023-02-01T11:51:52;2.70;;;1.60;;
52360;SDS011;38294;42.966;1.608;2023-02-01T11:54:42;2.42;;;1.80;;
52360;SDS011;38294;42.966;1.608;2023-02-01T12:02:50;4.38;;;2.35;;
52360;SDS011;38294;42.966;1.608;2023-02-01T12:13:54;3.45;;;1.92;;
52360;SDS011;38294;42.966;1.608;2023-02-01T12:22:04;6.45;;;3.15;;
52360;SDS011;38294;42.966;1.608;2023-02-01T12:24:54;4.95;;;1.90;;
52360;SDS011;38294;42.966;1.608;2023-02-01T12:30:43;2.28;;;1.63;;
52360;SDS011;38294;42.966;1.608;2023-02-01T12:33:35;2.85;;;1.90;;
52360;SDS011;38294;42.966;1.608;2023-02-01T12:36:15;2.55;;;1.60;;
52360;SDS011;38294;42.966;1.608;2023-02-01T12:42:43;2.72;;;1.67;;
52360;SDS011;38294;42.966;1.608;2023-02-01T12:45:12;2.25;;;1.75;;
52360;SDS011;38294;42.966;1.608;2023-02-01T12:47:57;3.25;;;2.00;;
52360;SDS011;38294;42.966;1.608;2023-02-01T12:50:45;5.13;;;2.22;;
52360;SDS011;38294;42.966;1.608;2023-02-01T12:53:19;4.50;;;2.15;;
52360;SDS011;38294;42.966;1.608;2023-02-01T12:56:10;3.38;;;1.73;;
52360;SDS011;38294;42.966;1.608;2023-02-01T12:58:50;2.63;;;1.67;;
52360;SDS011;38294;42.966;1.608;2023-02-01T13:01:31;5.38;;;1.95;;
52360;SDS011;38294;42.966;1.608;2023-02-01T13:06:36;3.22;;;1.80;;
52360;SDS011;38294;42.966;1.608;2023-02-01T13:09:09;5.22;;;2.30;;
52360;SDS011;38294;42.966;1.608;2023-02-01T13:11:49;2.42;;;1.55;;
52360;SDS011;38294;42.966;1.608;2023-02-01T13:14:32;3.22;;;1.75;;
52360;SDS011;38294;42.966;1.608;2023-02-01T13:17:12;1.50;;;1.40;;
52360;SDS011;38294;42.966;1.608;2023-02-01T13:19:53;2.38;;;1.38;;
52360;SDS011;38294;42.966;1.608;2023-02-01T13:22:40;3.13;;;1.52;;
52360;SDS011;38294;42.966;1.608;2023-02-01T13:36:37;2.88;;;1.70;;
52360;SDS011;38294;42.966;1.608;2023-02-01T13:49:46;5.28;;;2.03;;
52360;SDS011;38294;42.966;1.608;2023-02-01T13:52:50;6.72;;;1.90;;
52360;SDS011;38294;42.966;1.608;2023-02-01T13:57:47;2.97;;;1.65;;
52360;SDS011;38294;42.966;1.608;2023-02-01T14:10:46;4.65;;;1.45;;
52360;SDS011;38294;42.966;1.608;2023-02-01T14:13:32;6.07;;;1.58;;
52360;SDS011;38294;42.966;1.608;2023-02-01T14:23:43;3.35;;;1.73;;
52360;SDS011;38294;42.966;1.608;2023-02-01T14:26:15;2.80;;;1.45;;
52360;SDS011;38294;42.966;1.608;2023-02-01T14:28:45;4.60;;;1.60;;
52360;SDS011;38294;42.966;1.608;2023-02-01T14:31:17;3.95;;;1.73;;
52360;SDS011;38294;42.966;1.608;2023-02-01T14:42:21;4.15;;;2.08;;
52360;SDS011;38294;42.966;1.608;2023-02-01T14:44:53;4.28;;;1.98;;
52360;SDS011;38294;42.966;1.608;2023-02-01T14:49:54;5.32;;;2.28;;
52360;SDS011;38294;42.966;1.608;2023-02-01T14:52:36;3.55;;;1.45;;
52360;SDS011;38294;42.966;1.608;2023-02-01T14:55:15;4.15;;;1.80;;
52360;SDS011;38294;42.966;1.608;2023-02-01T14:57:53;3.25;;;1.38;;
52360;SDS011;38294;42.966;1.608;2023-02-01T15:00:26;4.72;;;2.00;;
52360;SDS011;38294;42.966;1.608;2023-02-01T15:02:54;2.85;;;1.83;;
52360;SDS011;38294;42.966;1.608;2023-02-01T15:05:38;3.65;;;1.70;;
52360;SDS011;38294;42.966;1.608;2023-02-01T15:08:07;3.30;;;1.75;;
52360;SDS011;38294;42.966;1.608;2023-02-01T15:10:43;7.03;;;1.80;;
52360;SDS011;38294;42.966;1.608;2023-02-01T15:13:20;1.50;;;1.40;;
52360;SDS011;38294;42.966;1.608;2023-02-01T15:18:36;2.55;;;1.50;;
52360;SDS011;38294;42.966;1.608;2023-02-01T15:21:03;4.80;;;2.13;;
52360;SDS011;38294;42.966;1.608;2023-02-01T15:23:31;4.13;;;1.70;;
52360;SDS011;38294;42.966;1.608;2023-02-01T15:25:57;2.85;;;1.65;;
52360;SDS011;38294;42.966;1.608;2023-02-01T15:28:24;3.60;;;1.95;;
52360;SDS011;38294;42.966;1.608;2023-02-01T15:30:54;6.32;;;1.60;;
52360;SDS011;38294;42.966;1.608;2023-02-01T15:33:28;2.08;;;1.70;;
52360;SDS011;38294;42.966;1.608;2023-02-01T15:38:33;4.35;;;1.80;;
52360;SDS011;38294;42.966;1.608;2023-02-01T15:41:05;2.03;;;1.55;;
52360;SDS011;38294;42.966;1.608;2023-02-01T15:43:46;3.80;;;1.85;;
52360;SDS011;38294;42.966;1.608;2023-02-01T15:46:17;3.83;;;1.80;;
52360;SDS011;38294;42.966;1.608;2023-02-01T15:48:51;4.03;;;1.55;;
52360;SDS011;38294;42.966;1.608;2023-02-01T15:53:54;3.50;;;1.60;;
52360;SDS011;38294;42.966;1.608;2023-02-01T15:56:44;1.63;;;1.50;;
52360;SDS011;38294;42.966;1.608;2023-02-01T15:59:18;4.53;;;2.03;;
52360;SDS011;38294;42.966;1.608;2023-02-01T16:01:46;1.98;;;1.50;;
52360;SDS011;38294;42.966;1.608;2023-02-01T16:04:17;2.38;;;1.80;;
52360;SDS011;38294;42.966;1.608;2023-02-01T16:09:17;4.13;;;1.70;;
52360;SDS011;38294;42.966;1.608;2023-02-01T16:11:52;3.25;;;1.77;;
52360;SDS011;38294;42.966;1.608;2023-02-01T16:14:21;3.17;;;2.13;;
52360;SDS011;38294;42.966;1.608;2023-02-01T16:16:46;3.53;;;1.92;;
52360;SDS011;38294;42.966;1.608;2023-02-01T16:19:13;6.93;;;2.50;;
52360;SDS011;38294;42.966;1.608;2023-02-01T16:21:38;4.60;;;2.28;;
52360;SDS011;38294;42.966;1.608;2023-02-01T16:24:04;4.32;;;2.30;;
52360;SDS011;38294;42.966;1.608;2023-02-01T16:26:31;5.53;;;2.50;;
52360;SDS011;38294;42.966;1.608;2023-02-01T16:28:58;3.55;;;2.20;;
52360;SDS011;38294;42.966;1.608;2023-02-01T16:31:32;3.80;;;2.15;;
52360;SDS011;38294;42.966;1.608;2023-02-01T16:34:14;4.70;;;2.20;;
52360;SDS011;38294;42.966;1.608;2023-02-01T16:36:46;5.03;;;2.00;;
52360;SDS011;38294;42.966;1.608;2023-02-01T16:39:17;5.93;;;2.50;;
52360;SDS011;38294;42.966;1.608;2023-02-01T16:41:43;6.55;;;2.97;;
52360;SDS011;38294;42.966;1.608;2023-02-01T16:44:10;4.10;;;2.60;;
52360;SDS011;38294;42.966;1.608;2023-02-01T16:46:39;9.95;;;2.20;;
52360;SDS011;38294;42.966;1.608;2023-02-01T16:49:23;3.92;;;2.10;;
52360;SDS011;38294;42.966;1.608;2023-02-01T16:51:50;4.35;;;2.47;;
52360;SDS011;38294;42.966;1.608;2023-02-01T16:54:20;8.80;;;3.33;;
52360;SDS011;38294;42.966;1.608;2023-02-01T16:56:45;8.27;;;3.38;;
52360;SDS011;38294;42.966;1.608;2023-02-01T16:59:12;8.77;;;3.10;;
52360;SDS011;38294;42.966;1.608;2023-02-01T17:01:39;8.05;;;3.95;;
52360;SDS011;38294;42.966;1.608;2023-02-01T17:04:07;8.38;;;4.10;;
52360;SDS011;38294;42.966;1.608;2023-02-01T17:06:33;10.07;;;4.78;;
52360;SDS011;38294;42.966;1.608;2023-02-01T17:09:04;12.65;;;5.13;;
52360;SDS011;38294;42.966;1.608;2023-02-01T17:11:30;7.40;;;4.18;;
52360;SDS011;38294;42.966;1.608;2023-02-01T17:13:57;4.85;;;3.00;;
52360;SDS011;38294;42.966;1.608;2023-02-01T17:16:34;8.30;;;3.50;;
52360;SDS011;38294;42.966;1.608;2023-02-01T17:19:05;7.22;;;3.28;;
52360;SDS011;38294;42.966;1.608;2023-02-01T17:21:57;10.60;;;4.05;;
52360;SDS011;38294;42.966;1.608;2023-02-01T17:24:26;10.77;;;3.90;;
52360;SDS011;38294;42.966;1.608;2023-02-01T17:26:59;7.43;;;3.80;;
52360;SDS011;38294;42.966;1.608;2023-02-01T17:29:25;15.52;;;5.75;;
52360;SDS011;38294;42.966;1.608;2023-02-01T17:31:53;21.50;;;7.53;;
52360;SDS011;38294;42.966;1.608;2023-02-01T17:34:20;12.88;;;5.80;;
52360;SDS011;38294;42.966;1.608;2023-02-01T17:36:47;10.32;;;5.60;;
52360;SDS011;38294;42.966;1.608;2023-02-01T17:39:13;15.20;;;7.20;;
52360;SDS011;38294;42.966;1.608;2023-02-01T17:42:00;14.30;;;6.32;;
52360;SDS011;38294;42.966;1.608;2023-02-01T17:44:26;9.80;;;4.60;;
52360;SDS011;38294;42.966;1.608;2023-02-01T17:46:52;10.32;;;5.18;;
52360;SDS011;38294;42.966;1.608;2023-02-01T17:49:18;9.48;;;5.45;;
52360;SDS011;38294;42.966;1.608;2023-02-01T17:51:43;11.85;;;5.95;;
52360;SDS011;38294;42.966;1.608;2023-02-01T17:54:16;8.43;;;4.80;;
52360;SDS011;38294;42.966;1.608;2023-02-01T17:56:44;8.63;;;5.47;;
52360;SDS011;38294;42.966;1.608;2023-02-01T17:59:12;8.50;;;4.55;;
52360;SDS011;38294;42.966;1.608;2023-02-01T18:01:42;18.23;;;6.47;;
52360;SDS011;38294;42.966;1.608;2023-02-01T18:04:11;18.23;;;6.78;;
52360;SDS011;38294;42.966;1.608;2023-02-01T18:06:40;17.40;;;7.22;;
52360;SDS011;38294;42.966;1.608;2023-02-01T18:09:05;15.75;;;7.60;;
52360;SDS011;38294;42.966;1.608;2023-02-01T18:11:31;13.10;;;6.25;;
52360;SDS011;38294;42.966;1.608;2023-02-01T18:13:57;13.80;;;6.80;;
52360;SDS011;38294;42.966;1.608;2023-02-01T18:16:25;15.77;;;7.40;;
52360;SDS011;38294;42.966;1.608;2023-02-01T18:18:54;19.48;;;9.32;;
52360;SDS011;38294;42.966;1.608;2023-02-01T18:21:32;19.60;;;10.75;;
52360;SDS011;38294;42.966;1.608;2023-02-01T18:24:03;14.02;;;6.53;;
52360;SDS011;38294;42.966;1.608;2023-02-01T18:26:29;16.17;;;8.68;;
52360;SDS011;38294;42.966;1.608;2023-02-01T18:28:54;13.70;;;6.93;;
52360;SDS011;38294;42.966;1.608;2023-02-01T18:33:49;22.75;;;10.90;;
52360;SDS011;38294;42.966;1.608;2023-02-01T18:36:15;20.73;;;10.15;;
52360;SDS011;38294;42.966;1.608;2023-02-01T18:38:41;23.50;;;11.27;;
52360;SDS011;38294;42.966;1.608;2023-02-01T18:41:08;20.05;;;9.30;;
52360;SDS011;38294;42.966;1.608;2023-02-01T18:43:38;27.30;;;13.85;;
52360;SDS011;38294;42.966;1.608;2023-02-01T18:46:03;28.83;;;13.15;;
52360;SDS011;38294;42.966;1.608;2023-02-01T18:48:29;25.38;;;11.65;;
52360;SDS011;38294;42.966;1.608;2023-02-01T18:50:55;28.33;;;11.60;;
52360;SDS011;38294;42.966;1.608;2023-02-01T18:53:21;30.00;;;14.20;;
52360;SDS011;38294;42.966;1.608;2023-02-01T18:55:55;25.75;;;10.57;;
52360;SDS011;38294;42.966;1.608;2023-02-01T18:58:21;20.63;;;9.30;;
52360;SDS011;38294;42.966;1.608;2023-02-01T19:00:51;22.73;;;8.85;;
52360;SDS011;38294;42.966;1.608;2023-02-01T19:03:21;19.00;;;9.00;;
52360;SDS011;38294;42.966;1.608;2023-02-01T19:05:50;24.35;;;9.20;;
52360;SDS011;38294;42.966;1.608;2023-02-01T19:08:19;16.73;;;8.52;;
52360;SDS011;38294;42.966;1.608;2023-02-01T19:10:44;18.50;;;8.20;;
52360;SDS011;38294;42.966;1.608;2023-02-01T19:13:10;15.95;;;7.63;;
52360;SDS011;38294;42.966;1.608;2023-02-01T19:15:39;17.42;;;8.50;;
52360;SDS011;38294;42.966;1.608;2023-02-01T19:18:06;13.98;;;7.25;;
52360;SDS011;38294;42.966;1.608;2023-02-01T19:20:33;23.40;;;11.10;;
52360;SDS011;38294;42.966;1.608;2023-02-01T19:23:01;20.80;;;8.23;;
52360;SDS011;38294;42.966;1.608;2023-02-01T19:25:27;11.75;;;6.43;;
52360;SDS011;38294;42.966;1.608;2023-02-01T19:27:54;13.50;;;6.55;;
52360;SDS011;38294;42.966;1.608;2023-02-01T19:30:20;16.38;;;6.68;;
52360;SDS011;38294;42.966;1.608;2023-02-01T19:32:47;13.07;;;6.63;;
52360;SDS011;38294;42.966;1.608;2023-02-01T19:35:14;9.73;;;5.93;;
52360;SDS011;38294;42.966;1.608;2023-02-01T19:37:43;19.83;;;6.65;;
52360;SDS011;38294;42.966;1.608;2023-02-01T19:40:11;10.77;;;5.55;;
52360;SDS011;38294;42.966;1.608;2023-02-01T19:42:39;10.55;;;5.15;;
52360;SDS011;38294;42.966;1.608;2023-02-01T19:45:05;12.05;;;5.95;;
52360;SDS011;38294;42.966;1.608;2023-02-01T19:47:31;11.35;;;5.82;;
52360;SDS011;38294;42.966;1.608;2023-02-01T19:49:57;8.68;;;5.38;;
52360;SDS011;38294;42.966;1.608;2023-02-01T19:52:23;12.43;;;6.00;;
52360;SDS011;38294;42.966;1.608;2023-02-01T19:54:49;11.00;;;6.75;;
52360;SDS011;38294;42.966;1.608;2023-02-01T19:57:14;10.70;;;6.15;;
52360;SDS011;38294;42.966;1.608;2023-02-01T19:59:40;13.00;;;6.18;;
52360;SDS011;38294;42.966;1.608;2023-02-01T20:02:06;12.05;;;5.13;;
52360;SDS011;38294;42.966;1.608;2023-02-01T20:04:31;13.35;;;5.35;;
52360;SDS011;38294;42.966;1.608;2023-02-01T20:06:57;6.50;;;4.20;;
52360;SDS011;38294;42.966;1.608;2023-02-01T20:09:26;12.05;;;4.38;;
52360;SDS011;38294;42.966;1.608;2023-02-01T20:11:56;7.82;;;4.22;;
52360;SDS011;38294;42.966;1.608;2023-02-01T20:14:22;7.85;;;3.90;;
52360;SDS011;38294;42.966;1.608;2023-02-01T20:16:51;6.22;;;3.90;;
52360;SDS011;38294;42.966;1.608;2023-02-01T20:19:17;8.13;;;4.03;;
52360;SDS011;38294;42.966;1.608;2023-02-01T20:21:42;14.02;;;5.30;;
52360;SDS011;38294;42.966;1.608;2023-02-01T20:24:09;8.93;;;5.43;;
52360;SDS011;38294;42.966;1.608;2023-02-01T20:26:38;9.68;;;5.40;;
52360;SDS011;38294;42.966;1.608;2023-02-01T20:29:04;11.10;;;5.30;;
52360;SDS011;38294;42.966;1.608;2023-02-01T20:31:29;12.25;;;6.65;;
52360;SDS011;38294;42.966;1.608;2023-02-01T20:33:56;15.32;;;6.70;;
52360;SDS011;38294;42.966;1.608;2023-02-01T20:36:23;9.15;;;4.72;;
52360;SDS011;38294;42.966;1.608;2023-02-01T20:38:52;10.40;;;5.50;;
52360;SDS011;38294;42.966;1.608;2023-02-01T20:41:18;9.65;;;5.30;;
52360;SDS011;38294;42.966;1.608;2023-02-01T20:43:45;12.52;;;5.72;;
52360;SDS011;38294;42.966;1.608;2023-02-01T20:46:10;15.20;;;7.40;;
52360;SDS011;38294;42.966;1.608;2023-02-01T20:48:37;13.48;;;6.50;;
52360;SDS011;38294;42.966;1.608;2023-02-01T20:51:07;11.57;;;5.60;;
52360;SDS011;38294;42.966;1.608;2023-02-01T20:53:33;12.70;;;5.95;;
52360;SDS011;38294;42.966;1.608;2023-02-01T20:55:59;10.52;;;5.57;;
52360;SDS011;38294;42.966;1.608;2023-02-01T20:58:25;9.10;;;4.65;;
52360;SDS011;38294;42.966;1.608;2023-02-01T21:00:51;12.88;;;4.65;;
52360;SDS011;38294;42.966;1.608;2023-02-01T21:03:17;7.97;;;4.43;;
52360;SDS011;38294;42.966;1.608;2023-02-01T21:05:46;8.02;;;4.82;;
52360;SDS011;38294;42.966;1.608;2023-02-01T21:08:17;12.23;;;5.13;;
52360;SDS011;38294;42.966;1.608;2023-02-01T21:10:43;7.40;;;4.63;;